Terminal Aerodrome Forecast
Issued by NWS Amarillo, TX

Home | Current Version | Previous Version | Text Only | Print | Product List | Glossary On
Versions: 1 2 3 4 5 6 7 8 9 10 11 12 13 14 15 16 17 18 19 20 21
340
FTUS44 KAMA 291951 AAA
TAFDHT
TAF AMD
KDHT 291951Z 2920/3018 03010KT P6SM OVC007
      TEMPO 2920/2924 3SM -SHRA BR OVC006
     FM300200 36015KT P6SM OVC015
     FM300800 34010KT P6SM OVC050
     FM301200 34010KT P6SM BKN010
     FM301500 35010KT P6SM SCT250=

USA.gov is the U.S. government's official web portal to all federal, state and local government web resources and services.